sensor_id;sensor_type;location;lat;lon;timestamp;pressure;altitude;pressure_sealevel;temperature;humidity
21276;BME280;36472;52.170;20.884;2023-04-25T00:00:08;99187.47;;;13.88;73.04
21276;BME280;36472;52.170;20.884;2023-04-25T00:03:00;99187.16;;;13.91;73.36
21276;BME280;36472;52.170;20.884;2023-04-25T00:05:29;99192.44;;;13.91;73.57
21276;BME280;36472;52.170;20.884;2023-04-25T00:08:00;99191.94;;;13.87;73.50
21276;BME280;36472;52.170;20.884;2023-04-25T00:10:29;99191.06;;;13.87;73.93
21276;BME280;36472;52.170;20.884;2023-04-25T00:12:57;99184.16;;;13.86;73.96
21276;BME280;36472;52.170;20.884;2023-04-25T00:15:30;99179.69;;;13.86;74.14
21276;BME280;36472;52.170;20.884;2023-04-25T00:17:58;99182.19;;;13.88;74.62
21276;BME280;36472;52.170;20.884;2023-04-25T00:20:27;99184.69;;;13.89;75.08
21276;BME280;36472;52.170;20.884;2023-04-25T00:22:57;99188.28;;;13.88;74.84
21276;BME280;36472;52.170;20.884;2023-04-25T00:25:27;99194.25;;;13.90;74.65
21276;BME280;36472;52.170;20.884;2023-04-25T00:27:56;99177.88;;;13.87;74.86
21276;BME280;36472;52.170;20.884;2023-04-25T00:30:25;99179.41;;;13.89;74.89
21276;BME280;36472;52.170;20.884;2023-04-25T00:32:54;99186.16;;;13.92;74.91
21276;BME280;36472;52.170;20.884;2023-04-25T00:35:23;99185.66;;;13.88;75.36
21276;BME280;36472;52.170;20.884;2023-04-25T00:37:52;99188.28;;;13.88;75.84
21276;BME280;36472;52.170;20.884;2023-04-25T00:40:21;99181.22;;;13.89;76.69
21276;BME280;36472;52.170;20.884;2023-04-25T00:42:53;99177.44;;;13.91;77.23
21276;BME280;36472;52.170;20.884;2023-04-25T00:45:22;99189.13;;;13.89;77.93
21276;BME280;36472;52.170;20.884;2023-04-25T00:47:55;99191.94;;;13.87;79.38
21276;BME280;36472;52.170;20.884;2023-04-25T00:50:25;99180.88;;;13.92;79.75
21276;BME280;36472;52.170;20.884;2023-04-25T00:52:54;99180.88;;;13.92;80.11
21276;BME280;36472;52.170;20.884;2023-04-25T00:55:23;99185.34;;;13.91;80.88
21276;BME280;36472;52.170;20.884;2023-04-25T00:57:54;99183.69;;;13.90;81.32
21276;BME280;36472;52.170;20.884;2023-04-25T01:00:23;99188.28;;;13.88;81.76
21276;BME280;36472;52.170;20.884;2023-04-25T01:02:52;99189.66;;;13.92;81.73
21276;BME280;36472;52.170;20.884;2023-04-25T01:05:22;99185.50;;;13.90;82.46
21276;BME280;36472;52.170;20.884;2023-04-25T01:07:50;99190.94;;;13.88;82.42
21276;BME280;36472;52.170;20.884;2023-04-25T01:10:20;99191.06;;;13.87;82.76
21276;BME280;36472;52.170;20.884;2023-04-25T01:12:49;99196.22;;;13.88;82.40
21276;BME280;36472;52.170;20.884;2023-04-25T01:15:19;99193.72;;;13.87;82.68
21276;BME280;36472;52.170;20.884;2023-04-25T01:17:48;99184.00;;;13.87;82.50
21276;BME280;36472;52.170;20.884;2023-04-25T01:20:18;99184.00;;;13.87;82.57
21276;BME280;36472;52.170;20.884;2023-04-25T01:22:52;99181.38;;;13.87;82.69
21276;BME280;36472;52.170;20.884;2023-04-25T01:25:22;99184.97;;;13.86;83.21
21276;BME280;36472;52.170;20.884;2023-04-25T01:27:52;99180.66;;;13.85;83.17
21276;BME280;36472;52.170;20.884;2023-04-25T01:30:21;99187.91;;;13.83;83.37
21276;BME280;36472;52.170;20.884;2023-04-25T01:32:52;99186.72;;;13.77;84.12
21276;BME280;36472;52.170;20.884;2023-04-25T01:35:23;99182.41;;;13.76;84.24
21276;BME280;36472;52.170;20.884;2023-04-25T01:37:55;99181.44;;;13.77;84.39
21276;BME280;36472;52.170;20.884;2023-04-25T01:40:25;99179.75;;;13.76;84.64
21276;BME280;36472;52.170;20.884;2023-04-25T01:42:56;99173.13;;;13.72;85.04
21276;BME280;36472;52.170;20.884;2023-04-25T01:45:26;99170.34;;;13.74;84.91
21276;BME280;36472;52.170;20.884;2023-04-25T01:47:54;99173.94;;;13.73;85.22
21276;BME280;36472;52.170;20.884;2023-04-25T01:50:27;99173.94;;;13.73;85.06
21276;BME280;36472;52.170;20.884;2023-04-25T01:52:58;99174.00;;;13.63;85.59
21276;BME280;36472;52.170;20.884;2023-04-25T01:55:27;99179.47;;;13.61;85.67
21276;BME280;36472;52.170;20.884;2023-04-25T01:58:04;99175.16;;;13.60;85.83
21276;BME280;36472;52.170;20.884;2023-04-25T02:00:55;99182.25;;;13.60;85.72
21276;BME280;36472;52.170;20.884;2023-04-25T02:03:27;99179.63;;;13.60;85.88
21276;BME280;36472;52.170;20.884;2023-04-25T02:05:57;99177.94;;;13.59;85.78
21276;BME280;36472;52.170;20.884;2023-04-25T02:08:27;99181.56;;;13.58;86.01
21276;BME280;36472;52.170;20.884;2023-04-25T02:10:57;99178.91;;;13.58;85.74
21276;BME280;36472;52.170;20.884;2023-04-25T02:13:33;99168.81;;;13.53;85.79
21276;BME280;36472;52.170;20.884;2023-04-25T02:16:31;99172.56;;;13.51;85.81
21276;BME280;36472;52.170;20.884;2023-04-25T02:19:01;99168.59;;;13.46;86.18
21276;BME280;36472;52.170;20.884;2023-04-25T02:21:31;99166.91;;;13.45;85.93
21276;BME280;36472;52.170;20.884;2023-04-25T02:24:01;99164.75;;;13.41;86.02
21276;BME280;36472;52.170;20.884;2023-04-25T02:26:30;99160.72;;;13.37;86.37
21276;BME280;36472;52.170;20.884;2023-04-25T02:28:59;99168.50;;;13.38;86.12
21276;BME280;36472;52.170;20.884;2023-04-25T02:31:28;99163.34;;;13.37;86.10
21276;BME280;36472;52.170;20.884;2023-04-25T02:33:58;99162.53;;;13.36;86.19
21276;BME280;36472;52.170;20.884;2023-04-25T02:36:28;99162.81;;;13.33;86.36
21276;BME280;36472;52.170;20.884;2023-04-25T02:39:00;99159.47;;;13.31;86.48
21276;BME280;36472;52.170;20.884;2023-04-25T02:41:30;99165.88;;;13.28;86.81
21276;BME280;36472;52.170;20.884;2023-04-25T02:43:59;99164.22;;;13.27;87.07
21276;BME280;36472;52.170;20.884;2023-04-25T02:46:28;99160.72;;;13.27;87.06
21276;BME280;36472;52.170;20.884;2023-04-25T02:49:06;99160.59;;;13.28;86.96
21276;BME280;36472;52.170;20.884;2023-04-25T02:51:36;99158.38;;;13.34;86.59
21276;BME280;36472;52.170;20.884;2023-04-25T02:54:06;99151.72;;;13.29;86.74
21276;BME280;36472;52.170;20.884;2023-04-25T02:56:40;99159.47;;;13.31;86.95
21276;BME280;36472;52.170;20.884;2023-04-25T02:59:14;99159.47;;;13.31;87.02
21276;BME280;36472;52.170;20.884;2023-04-25T03:01:43;99158.94;;;13.27;87.21
21276;BME280;36472;52.170;20.884;2023-04-25T03:04:12;99160.19;;;13.23;87.51
21276;BME280;36472;52.170;20.884;2023-04-25T03:06:41;99155.25;;;13.20;87.92
21276;BME280;36472;52.170;20.884;2023-04-25T03:09:11;99154.78;;;13.25;87.58
21276;BME280;36472;52.170;20.884;2023-04-25T03:11:41;99159.53;;;13.21;87.25
21276;BME280;36472;52.170;20.884;2023-04-25T03:14:10;99160.06;;;13.25;87.44
21276;BME280;36472;52.170;20.884;2023-04-25T03:16:39;99159.91;;;13.26;87.00
21276;BME280;36472;52.170;20.884;2023-04-25T03:19:08;99160.19;;;13.23;87.31
21276;BME280;36472;52.170;20.884;2023-04-25T03:21:37;99159.09;;;13.26;87.11
21276;BME280;36472;52.170;20.884;2023-04-25T03:24:06;99171.16;;;13.28;86.47
21276;BME280;36472;52.170;20.884;2023-04-25T03:26:37;99176.03;;;13.33;86.53
21276;BME280;36472;52.170;20.884;2023-04-25T03:29:05;99171.56;;;13.34;86.49
21276;BME280;36472;52.170;20.884;2023-04-25T03:31:35;99169.78;;;13.34;86.36
21276;BME280;36472;52.170;20.884;2023-04-25T03:34:04;99172.28;;;13.36;86.23
21276;BME280;36472;52.170;20.884;2023-04-25T03:36:33;99171.41;;;13.35;86.08
21276;BME280;36472;52.170;20.884;2023-04-25T03:39:02;99177.22;;;13.39;86.18
21276;BME280;36472;52.170;20.884;2023-04-25T03:41:32;99179.03;;;13.38;85.78
21276;BME280;36472;52.170;20.884;2023-04-25T03:44:06;99186.00;;;13.39;85.75
21276;BME280;36472;52.170;20.884;2023-04-25T03:46:35;99187.09;;;13.37;85.95
21276;BME280;36472;52.170;20.884;2023-04-25T03:49:04;99185.28;;;13.37;85.75
21276;BME280;36472;52.170;20.884;2023-04-25T03:51:56;99189.22;;;13.33;85.76
21276;BME280;36472;52.170;20.884;2023-04-25T03:54:29;99189.06;;;13.35;85.61
21276;BME280;36472;52.170;20.884;2023-04-25T03:57:04;99191.13;;;13.31;85.59
21276;BME280;36472;52.170;20.884;2023-04-25T03:59:38;99194.88;;;13.28;85.92
21276;BME280;36472;52.170;20.884;2023-04-25T04:02:09;99193.38;;;13.26;86.16
21276;BME280;36472;52.170;20.884;2023-04-25T04:04:39;99188.53;;;13.21;86.30
21276;BME280;36472;52.170;20.884;2023-04-25T04:07:10;99197.28;;;13.22;86.50
21276;BME280;36472;52.170;20.884;2023-04-25T04:09:41;99199.25;;;13.20;86.36
21276;BME280;36472;52.170;20.884;2023-04-25T04:12:16;99195.63;;;13.21;86.71
21276;BME280;36472;52.170;20.884;2023-04-25T04:14:46;99199.09;;;13.21;86.82
21276;BME280;36472;52.170;20.884;2023-04-25T04:17:15;99201.06;;;13.19;87.41
21276;BME280;36472;52.170;20.884;2023-04-25T04:19:44;99205.94;;;13.14;87.82
21276;BME280;36472;52.170;20.884;2023-04-25T04:22:18;99199.00;;;13.13;88.10
21276;BME280;36472;52.170;20.884;2023-04-25T04:24:48;99207.91;;;13.12;88.53
21276;BME280;36472;52.170;20.884;2023-04-25T04:27:30;99208.19;;;13.09;88.98
21276;BME280;36472;52.170;20.884;2023-04-25T04:30:35;99204.34;;;13.03;89.00
21276;BME280;36472;52.170;20.884;2023-04-25T04:33:07;99205.72;;;12.98;89.38
21276;BME280;36472;52.170;20.884;2023-04-25T04:35:37;99210.31;;;12.96;90.34
21276;BME280;36472;52.170;20.884;2023-04-25T04:38:07;99216.16;;;12.89;91.32
21276;BME280;36472;52.170;20.884;2023-04-25T04:40:36;99215.75;;;12.84;92.09
21276;BME280;36472;52.170;20.884;2023-04-25T04:43:13;99222.44;;;12.79;92.33
21276;BME280;36472;52.170;20.884;2023-04-25T04:46:04;99223.72;;;12.75;93.08
21276;BME280;36472;52.170;20.884;2023-04-25T04:48:52;99215.41;;;12.69;93.26
21276;BME280;36472;52.170;20.884;2023-04-25T04:51:40;99209.72;;;12.54;93.78
21276;BME280;36472;52.170;20.884;2023-04-25T04:54:33;99213.19;;;12.55;94.65
21276;BME280;36472;52.170;20.884;2023-04-25T04:57:16;99213.19;;;12.55;94.77
21276;BME280;36472;52.170;20.884;2023-04-25T05:00:15;99224.44;;;12.57;94.87
21276;BME280;36472;52.170;20.884;2023-04-25T05:03:04;99210.00;;;12.51;94.51
21276;BME280;36472;52.170;20.884;2023-04-25T05:05:56;99211.28;;;12.47;94.14
21276;BME280;36472;52.170;20.884;2023-04-25T05:08:46;99216.13;;;12.42;94.67
21276;BME280;36472;52.170;20.884;2023-04-25T05:11:30;99213.50;;;12.42;93.81
21276;BME280;36472;52.170;20.884;2023-04-25T05:14:14;99227.09;;;12.38;93.20
21276;BME280;36472;52.170;20.884;2023-04-25T05:16:44;99225.59;;;12.35;94.00
21276;BME280;36472;52.170;20.884;2023-04-25T05:19:24;99218.50;;;12.35;94.21
21276;BME280;36472;52.170;20.884;2023-04-25T05:22:23;99217.28;;;12.30;93.66
21276;BME280;36472;52.170;20.884;2023-04-25T05:25:09;99211.69;;;12.33;94.16
21276;BME280;36472;52.170;20.884;2023-04-25T05:28:12;99217.50;;;12.37;94.31
21276;BME280;36472;52.170;20.884;2023-04-25T05:30:49;99218.50;;;12.35;94.48
21276;BME280;36472;52.170;20.884;2023-04-25T05:33:28;99218.22;;;12.29;95.23
21276;BME280;36472;52.170;20.884;2023-04-25T05:35:58;99224.72;;;12.34;95.26
21276;BME280;36472;52.170;20.884;2023-04-25T05:38:27;99215.19;;;12.33;95.25
21276;BME280;36472;52.170;20.884;2023-04-25T05:41:19;99225.84;;;12.32;95.42
21276;BME280;36472;52.170;20.884;2023-04-25T05:44:14;99229.59;;;12.39;95.35
21276;BME280;36472;52.170;20.884;2023-04-25T05:47:03;99223.63;;;12.27;95.78
21276;BME280;36472;52.170;20.884;2023-04-25T05:49:50;99237.94;;;12.25;95.48
21276;BME280;36472;52.170;20.884;2023-04-25T05:52:28;99236.22;;;12.43;94.89
21276;BME280;36472;52.170;20.884;2023-04-25T05:55:10;99233.19;;;12.38;94.52
21276;BME280;36472;52.170;20.884;2023-04-25T05:57:39;99239.72;;;12.44;93.44
21276;BME280;36472;52.170;20.884;2023-04-25T06:00:11;99233.31;;;12.46;92.83
21276;BME280;36472;52.170;20.884;2023-04-25T06:02:41;99231.94;;;12.52;92.69
21276;BME280;36472;52.170;20.884;2023-04-25T06:05:12;99243.44;;;12.51;92.57
21276;BME280;36472;52.170;20.884;2023-04-25T06:07:43;99247.59;;;12.53;92.04
21276;BME280;36472;52.170;20.884;2023-04-25T06:10:12;99251.50;;;12.49;92.01
21276;BME280;36472;52.170;20.884;2023-04-25T06:12:42;99261.06;;;12.50;92.35
21276;BME280;36472;52.170;20.884;2023-04-25T06:15:12;99267.97;;;12.51;92.53
21276;BME280;36472;52.170;20.884;2023-04-25T06:17:55;99291.00;;;12.49;92.91
21276;BME280;36472;52.170;20.884;2023-04-25T06:20:24;99296.97;;;12.42;92.29
21276;BME280;36472;52.170;20.884;2023-04-25T06:22:58;99312.34;;;12.37;91.63
21276;BME280;36472;52.170;20.884;2023-04-25T06:25:37;99309.31;;;12.22;91.41
21276;BME280;36472;52.170;20.884;2023-04-25T06:28:06;99308.19;;;12.05;90.98
21276;BME280;36472;52.170;20.884;2023-04-25T06:30:36;99304.50;;;11.86;91.52
21276;BME280;36472;52.170;20.884;2023-04-25T06:33:09;99297.97;;;11.71;93.86
21276;BME280;36472;52.170;20.884;2023-04-25T06:35:39;99297.91;;;11.61;95.09
21276;BME280;36472;52.170;20.884;2023-04-25T06:38:13;99297.75;;;11.53;95.89
21276;BME280;36472;52.170;20.884;2023-04-25T06:40:46;99295.66;;;11.47;97.61
21276;BME280;36472;52.170;20.884;2023-04-25T06:43:16;99289.59;;;11.46;99.14
21276;BME280;36472;52.170;20.884;2023-04-25T06:46:05;99291.06;;;11.39;99.01
21276;BME280;36472;52.170;20.884;2023-04-25T06:48:41;99293.66;;;11.29;98.40
21276;BME280;36472;52.170;20.884;2023-04-25T06:51:11;99289.56;;;11.15;98.32
21276;BME280;36472;52.170;20.884;2023-04-25T06:53:43;99275.41;;;11.07;99.39
21276;BME280;36472;52.170;20.884;2023-04-25T06:56:23;99275.53;;;11.05;100.00
21276;BME280;36472;52.170;20.884;2023-04-25T06:59:21;99283.84;;;11.10;100.00
21276;BME280;36472;52.170;20.884;2023-04-25T07:01:51;99284.72;;;11.11;100.00
21276;BME280;36472;52.170;20.884;2023-04-25T07:04:25;99278.91;;;11.17;100.00
21276;BME280;36472;52.170;20.884;2023-04-25T07:06:56;99285.97;;;11.16;100.00
21276;BME280;36472;52.170;20.884;2023-04-25T07:09:46;99272.66;;;11.08;100.00
21276;BME280;36472;52.170;20.884;2023-04-25T07:12:15;99280.97;;;11.13;100.00
21276;BME280;36472;52.170;20.884;2023-04-25T07:14:44;99279.63;;;11.19;100.00
21276;BME280;36472;52.170;20.884;2023-04-25T07:17:13;99285.22;;;11.26;100.00
21276;BME280;36472;52.170;20.884;2023-04-25T07:19:43;99284.59;;;11.12;100.00
21276;BME280;36472;52.170;20.884;2023-04-25T07:22:12;99280.72;;;11.16;100.00
21276;BME280;36472;52.170;20.884;2023-04-25T07:24:42;99282.53;;;11.16;100.00
21276;BME280;36472;52.170;20.884;2023-04-25T07:27:17;99283.47;;;11.15;100.00
21276;BME280;36472;52.170;20.884;2023-04-25T07:29:56;99285.97;;;11.16;100.00
21276;BME280;36472;52.170;20.884;2023-04-25T07:32:25;99291.41;;;11.25;100.00
21276;BME280;36472;52.170;20.884;2023-04-25T07:34:55;99296.56;;;11.26;100.00
21276;BME280;36472;52.170;20.884;2023-04-25T07:37:24;99292.81;;;11.29;100.00
21276;BME280;36472;52.170;20.884;2023-04-25T07:40:20;99293.47;;;11.21;100.00
21276;BME280;36472;52.170;20.884;2023-04-25T07:42:54;99296.81;;;11.23;100.00
21276;BME280;36472;52.170;20.884;2023-04-25T07:45:31;99292.91;;;11.17;99.94
21276;BME280;36472;52.170;20.884;2023-04-25T07:48:01;99294.56;;;11.18;97.86
21276;BME280;36472;52.170;20.884;2023-04-25T07:50:34;99307.84;;;11.17;97.19
21276;BME280;36472;52.170;20.884;2023-04-25T07:53:03;99308.94;;;11.14;97.23
21276;BME280;36472;52.170;20.884;2023-04-25T07:55:38;99301.94;;;11.25;98.09
21276;BME280;36472;52.170;20.884;2023-04-25T07:58:14;99312.97;;;11.18;97.03
21276;BME280;36472;52.170;20.884;2023-04-25T08:00:51;99303.00;;;11.12;95.32
21276;BME280;36472;52.170;20.884;2023-04-25T08:03:35;99302.25;;;11.10;96.29
21276;BME280;36472;52.170;20.884;2023-04-25T08:06:09;99303.19;;;11.20;95.92
21276;BME280;36472;52.170;20.884;2023-04-25T08:08:49;99311.75;;;11.22;94.73
21276;BME280;36472;52.170;20.884;2023-04-25T08:11:21;99303.88;;;11.22;95.37
21276;BME280;36472;52.170;20.884;2023-04-25T08:13:51;99299.06;;;11.28;95.61
21276;BME280;36472;52.170;20.884;2023-04-25T08:16:21;99305.69;;;11.32;94.53
21276;BME280;36472;52.170;20.884;2023-04-25T08:18:51;99312.38;;;11.36;94.54
21276;BME280;36472;52.170;20.884;2023-04-25T08:21:21;99314.28;;;11.34;93.30
21276;BME280;36472;52.170;20.884;2023-04-25T08:23:49;99307.81;;;11.38;94.43
21276;BME280;36472;52.170;20.884;2023-04-25T08:26:26;99317.09;;;11.42;94.15
21276;BME280;36472;52.170;20.884;2023-04-25T08:28:57;99322.63;;;11.39;94.98
21276;BME280;36472;52.170;20.884;2023-04-25T08:31:26;99325.56;;;11.46;93.68
21276;BME280;36472;52.170;20.884;2023-04-25T08:33:58;99314.91;;;11.47;94.06
21276;BME280;36472;52.170;20.884;2023-04-25T08:36:38;99322.28;;;11.53;92.85
21276;BME280;36472;52.170;20.884;2023-04-25T08:39:36;99330.94;;;11.44;91.98
21276;BME280;36472;52.170;20.884;2023-04-25T08:42:24;99334.44;;;11.45;92.03
21276;BME280;36472;52.170;20.884;2023-04-25T08:44:58;99340.25;;;11.48;91.93
21276;BME280;36472;52.170;20.884;2023-04-25T08:47:38;99339.84;;;11.53;91.70
21276;BME280;36472;52.170;20.884;2023-04-25T08:50:09;99341.41;;;11.55;91.10
21276;BME280;36472;52.170;20.884;2023-04-25T08:52:44;99353.19;;;11.61;90.71
21276;BME280;36472;52.170;20.884;2023-04-25T08:55:16;99352.09;;;11.64;91.93
21276;BME280;36472;52.170;20.884;2023-04-25T08:57:46;99355.16;;;11.69;89.98
21276;BME280;36472;52.170;20.884;2023-04-25T09:00:18;99354.03;;;11.62;89.50
21276;BME280;36472;52.170;20.884;2023-04-25T09:02:48;99360.38;;;11.59;89.30
21276;BME280;36472;52.170;20.884;2023-04-25T09:05:18;99359.94;;;11.54;89.93
21276;BME280;36472;52.170;20.884;2023-04-25T09:07:52;99364.56;;;11.62;90.25
21276;BME280;36472;52.170;20.884;2023-04-25T09:10:21;99363.25;;;11.56;90.08
21276;BME280;36472;52.170;20.884;2023-04-25T09:13:03;99368.66;;;11.54;90.66
21276;BME280;36472;52.170;20.884;2023-04-25T09:15:51;99363.97;;;11.58;91.57
21276;BME280;36472;52.170;20.884;2023-04-25T09:18:41;99366.03;;;11.54;91.21
21276;BME280;36472;52.170;20.884;2023-04-25T09:21:15;99372.84;;;11.57;91.36
21276;BME280;36472;52.170;20.884;2023-04-25T09:23:48;99378.22;;;11.55;91.41
21276;BME280;36472;52.170;20.884;2023-04-25T09:26:20;99377.66;;;11.52;90.27
21276;BME280;36472;52.170;20.884;2023-04-25T09:29:05;99381.94;;;11.53;91.06
21276;BME280;36472;52.170;20.884;2023-04-25T09:31:40;99386.94;;;11.56;90.77
21276;BME280;36472;52.170;20.884;2023-04-25T09:34:11;99384.19;;;11.57;89.90
21276;BME280;36472;52.170;20.884;2023-04-25T09:36:47;99387.81;;;11.66;88.18
21276;BME280;36472;52.170;20.884;2023-04-25T09:39:29;99397.91;;;11.61;87.14
21276;BME280;36472;52.170;20.884;2023-04-25T09:42:11;99392.25;;;11.66;86.81
21276;BME280;36472;52.170;20.884;2023-04-25T09:44:43;99390.72;;;11.63;86.91
21276;BME280;36472;52.170;20.884;2023-04-25T09:47:15;99403.31;;;11.59;86.90
21276;BME280;36472;52.170;20.884;2023-04-25T09:49:45;99402.88;;;11.54;87.90
21276;BME280;36472;52.170;20.884;2023-04-25T09:52:17;99405.50;;;11.54;87.77
21276;BME280;36472;52.170;20.884;2023-04-25T09:54:58;99411.75;;;11.53;88.83
21276;BME280;36472;52.170;20.884;2023-04-25T09:57:32;99402.88;;;11.54;90.08
21276;BME280;36472;52.170;20.884;2023-04-25T10:00:03;99407.44;;;11.52;89.33
21276;BME280;36472;52.170;20.884;2023-04-25T10:02:47;99408.09;;;11.45;89.57
21276;BME280;36472;52.170;20.884;2023-04-25T10:05:52;99405.34;;;11.46;90.99
21276;BME280;36472;52.170;20.884;2023-04-25T10:08:23;99412.78;;;11.41;91.76
21276;BME280;36472;52.170;20.884;2023-04-25T10:10:54;99406.22;;;11.35;91.51
21276;BME280;36472;52.170;20.884;2023-04-25T10:13:23;99409.25;;;11.31;90.67
21276;BME280;36472;52.170;20.884;2023-04-25T10:15:54;99413.34;;;11.23;91.12
21276;BME280;36472;52.170;20.884;2023-04-25T10:18:27;99407.25;;;11.23;91.10
21276;BME280;36472;52.170;20.884;2023-04-25T10:21:00;99403.47;;;11.16;91.67
21276;BME280;36472;52.170;20.884;2023-04-25T10:23:30;99412.00;;;11.08;90.99
21276;BME280;36472;52.170;20.884;2023-04-25T10:26:00;99405.53;;;11.12;91.45
21276;BME280;36472;52.170;20.884;2023-04-25T10:28:55;99418.28;;;11.17;91.98
21276;BME280;36472;52.170;20.884;2023-04-25T10:31:25;99405.56;;;11.22;92.07
21276;BME280;36472;52.170;20.884;2023-04-25T10:33:56;99409.84;;;11.34;92.00
21276;BME280;36472;52.170;20.884;2023-04-25T10:36:26;99410.28;;;11.39;92.03
21276;BME280;36472;52.170;20.884;2023-04-25T10:39:04;99402.97;;;11.43;90.69
21276;BME280;36472;52.170;20.884;2023-04-25T10:41:47;99402.97;;;11.43;89.85
21276;BME280;36472;52.170;20.884;2023-04-25T10:44:16;99396.72;;;11.44;89.57
21276;BME280;36472;52.170;20.884;2023-04-25T10:46:45;99406.03;;;11.48;90.35
21276;BME280;36472;52.170;20.884;2023-04-25T10:49:32;99407.31;;;11.54;88.85
21276;BME280;36472;52.170;20.884;2023-04-25T10:52:17;99405.22;;;11.57;88.23
21276;BME280;36472;52.170;20.884;2023-04-25T10:54:52;99403.31;;;11.59;86.59
21276;BME280;36472;52.170;20.884;2023-04-25T10:57:37;99406.69;;;11.71;86.67
21276;BME280;36472;52.170;20.884;2023-04-25T11:00:10;99413.09;;;11.78;85.12
21276;BME280;36472;52.170;20.884;2023-04-25T11:02:45;99404.81;;;11.83;83.19
21276;BME280;36472;52.170;20.884;2023-04-25T11:05:32;99405.66;;;11.84;81.81
21276;BME280;36472;52.170;20.884;2023-04-25T11:08:18;99406.91;;;11.89;82.25
21276;BME280;36472;52.170;20.884;2023-04-25T11:10:53;99395.34;;;12.02;83.62
21276;BME280;36472;52.170;20.884;2023-04-25T11:13:29;99403.28;;;12.11;82.36
21276;BME280;36472;52.170;20.884;2023-04-25T11:15:58;99396.75;;;12.15;81.14
21276;BME280;36472;52.170;20.884;2023-04-25T11:18:41;99403.56;;;12.18;80.67
21276;BME280;36472;52.170;20.884;2023-04-25T11:21:13;99404.00;;;12.23;79.74
21276;BME280;36472;52.170;20.884;2023-04-25T11:23:45;99409.84;;;12.37;79.52
21276;BME280;36472;52.170;20.884;2023-04-25T11:26:14;99407.50;;;12.33;78.20
21276;BME280;36472;52.170;20.884;2023-04-25T11:28:45;99408.31;;;12.34;77.09
21276;BME280;36472;52.170;20.884;2023-04-25T11:31:14;99416.50;;;12.41;77.12
21276;BME280;36472;52.170;20.884;2023-04-25T11:33:43;99406.41;;;12.46;76.62
21276;BME280;36472;52.170;20.884;2023-04-25T11:36:14;99405.28;;;12.48;77.22
21276;BME280;36472;52.170;20.884;2023-04-25T11:38:43;99404.72;;;12.45;76.74
21276;BME280;36472;52.170;20.884;2023-04-25T11:41:12;99409.31;;;12.52;75.96
21276;BME280;36472;52.170;20.884;2023-04-25T11:43:43;99406.97;;;12.59;75.00
21276;BME280;36472;52.170;20.884;2023-04-25T11:46:12;99405.88;;;12.52;74.78
21276;BME280;36472;52.170;20.884;2023-04-25T11:48:42;99412.50;;;12.56;75.78
21276;BME280;36472;52.170;20.884;2023-04-25T11:51:13;99402.09;;;12.54;75.30
21276;BME280;36472;52.170;20.884;2023-04-25T11:53:45;99413.91;;;12.50;75.72
21276;BME280;36472;52.170;20.884;2023-04-25T11:56:14;99409.16;;;12.44;76.57
21276;BME280;36472;52.170;20.884;2023-04-25T11:58:57;99409.56;;;12.40;76.36
21276;BME280;36472;52.170;20.884;2023-04-25T12:01:28;99411.78;;;12.34;75.86
21276;BME280;36472;52.170;20.884;2023-04-25T12:04:13;99408.19;;;12.35;74.79
21276;BME280;36472;52.170;20.884;2023-04-25T12:06:45;99406.78;;;12.31;74.82
21276;BME280;36472;52.170;20.884;2023-04-25T12:09:18;99406.63;;;12.33;74.37
21276;BME280;36472;52.170;20.884;2023-04-25T12:11:53;99412.19;;;12.30;73.52
21276;BME280;36472;52.170;20.884;2023-04-25T12:14:24;99405.56;;;12.35;75.11
21276;BME280;36472;52.170;20.884;2023-04-25T12:16:56;99411.63;;;12.36;73.30
21276;BME280;36472;52.170;20.884;2023-04-25T12:19:31;99406.25;;;12.38;72.85
21276;BME280;36472;52.170;20.884;2023-04-25T12:22:03;99408.75;;;12.39;72.97
21276;BME280;36472;52.170;20.884;2023-04-25T12:24:34;99409.56;;;12.40;73.08
21276;BME280;36472;52.170;20.884;2023-04-25T12:27:07;99413.31;;;12.37;72.78
21276;BME280;36472;52.170;20.884;2023-04-25T12:29:36;99415.66;;;12.30;72.95
21276;BME280;36472;52.170;20.884;2023-04-25T12:32:16;99414.25;;;12.26;71.90
21276;BME280;36472;52.170;20.884;2023-04-25T12:34:45;99406.34;;;12.26;73.37
21276;BME280;36472;52.170;20.884;2023-04-25T12:37:15;99408.56;;;12.21;73.81
21276;BME280;36472;52.170;20.884;2023-04-25T12:39:44;99410.50;;;12.19;72.85
21276;BME280;36472;52.170;20.884;2023-04-25T12:42:13;99407.84;;;12.19;73.31
21276;BME280;36472;52.170;20.884;2023-04-25T12:44:42;99407.44;;;12.14;74.21
21276;BME280;36472;52.170;20.884;2023-04-25T12:47:11;99412.03;;;12.22;74.08
21276;BME280;36472;52.170;20.884;2023-04-25T12:49:40;99404.53;;;12.17;71.82
21276;BME280;36472;52.170;20.884;2023-04-25T12:52:09;99405.47;;;12.16;72.59
21276;BME280;36472;52.170;20.884;2023-04-25T12:54:39;99401.06;;;12.16;73.46
21276;BME280;36472;52.170;20.884;2023-04-25T12:57:08;99398.31;;;12.18;73.02
21276;BME280;36472;52.170;20.884;2023-04-25T12:59:37;99397.31;;;12.19;73.82
21276;BME280;36472;52.170;20.884;2023-04-25T13:02:06;99395.69;;;12.28;73.20
21276;BME280;36472;52.170;20.884;2023-04-25T13:04:35;99395.41;;;12.31;74.54
21276;BME280;36472;52.170;20.884;2023-04-25T13:07:04;99391.13;;;12.30;74.20
21276;BME280;36472;52.170;20.884;2023-04-25T13:09:33;99398.03;;;12.31;73.78
21276;BME280;36472;52.170;20.884;2023-04-25T13:12:03;99394.47;;;12.32;74.36
21276;BME280;36472;52.170;20.884;2023-04-25T13:14:33;99395.69;;;12.28;73.82
21276;BME280;36472;52.170;20.884;2023-04-25T13:17:02;99386.94;;;12.27;73.83
21276;BME280;36472;52.170;20.884;2023-04-25T13:19:32;99395.13;;;12.24;74.86
21276;BME280;36472;52.170;20.884;2023-04-25T13:22:03;99394.69;;;12.19;75.09
21276;BME280;36472;52.170;20.884;2023-04-25T13:24:32;99396.38;;;12.20;76.04